ADDS METAR Data INFO
IDs: Format: Raw Decoded Include TAF

Data at: 1407 UTC 12 Dec 2017

KMCD 121355Z AUTO 36016G21KT 10SM OVC012 M13/M16 A2988 RMK AO2 T11321165
KMCD 121335Z AUTO 35016G22KT 5SM HZ BKN012 OVC018 M13/M16 A2988 RMK AO2 T11321165
KMCD 121315Z AUTO 36016G24KT 7SM BKN012 OVC018 M13/M17 A2988 RMK AO2 T11321166
KMCD 121255Z AUTO 35017G24KT 5SM HZ OVC014 M13/M16 A2988 RMK AO2 T11311164
KMCD 121235Z AUTO 36016G24KT 4SM HZ BKN014 OVC022 M13/M17 A2987 RMK AO2 T11311168
KMCD 121215Z AUTO 34017G26KT 3SM HZ BKN016 BKN025 OVC029 M13/M16 A2986 RMK AO2 T11271165
KMCD 121155Z AUTO 36015G25KT 5SM HZ BKN015 OVC023 M12/M16 A2985 RMK AO2 T11231162 11066 21123
KMCD 121135Z AUTO 34017G26KT 2SM -SN OVC013 M12/M16 A2985 RMK AO2 T11231159
KMCD 121115Z AUTO 35014G29KT 2 1/2SM -SN BKN015 BKN020 OVC027 M12/M16 A2984 RMK AO2 VIS 1 3/4V5 T11171156
KMCD 121055Z AUTO 34015G28KT 7SM SCT018 OVC025 M12/M16 A2983 RMK AO2 T11161159
KMCD 121035Z AUTO 34021G28KT 3SM -SN SCT010 BKN015 OVC026 M11/M15 A2982 RMK AO2 T11151152
KMCD 121015Z AUTO 33016G25KT 2SM -SN SCT007 BKN013 OVC020 M11/M15 A2981 RMK AO2 T11121148
KMCD 120955Z AUTO 34013G26KT 7SM SCT014 BKN018 OVC023 M11/M15 A2980 RMK AO2 T11101152
KMCD 120935Z AUTO 33020G30KT 4SM HZ BKN019 BKN023 OVC032 M11/M15 A2980 RMK AO2 T11071151
KMCD 120915Z AUTO 33016G29KT 2 1/2SM -SN SCT015 BKN020 OVC032 M10/M14 A2979 RMK AO2 T11051143
KMCD 120855Z AUTO 33017G30KT 3SM -SN BKN023 OVC030 M10/M14 A2979 RMK AO2 T11001143
KMCD 120835Z AUTO 33016G29KT 7SM SCT021 BKN026 OVC032 M10/M14 A2978 RMK AO2 T10981144
KMCD 120815Z AUTO 33023G31KT 7SM BKN022 OVC027 M09/M14 A2977 RMK AO2 T10931137
KMCD 120755Z AUTO 34021G29KT 10SM OVC024 M09/M14 A2976 RMK AO2 T10901137
KMCD 120735Z AUTO 33025G37KT 5SM -SN OVC024 M09/M13 A2975 RMK AO2 T10871134
KMCD 120715Z AUTO 34020G30KT 290V350 10SM SCT020 OVC026 M08/M13 A2974 RMK AO2 T10831131
KMCD 120655Z AUTO 32024G35KT 7SM OVC024 M08/M12 A2973 RMK AO2 T10801125
KMCD 120635Z AUTO 32016G35KT 7SM -SN OVC024 M07/M12 A2972 RMK AO2 T10721117
KMCD 120615Z AUTO 32018G33KT 5SM -SN BKN024 OVC028 M07/M11 A2970 RMK AO2 T10701115
KMCD 120555Z AUTO 32018G30KT 7SM OVC024 M06/M11 A2969 RMK AO2 T10651108 11035 21065
KMCD 120535Z AUTO 32020G33KT 7SM BKN024 OVC075 M06/M10 A2969 RMK AO2 T10611105
KMCD 120515Z AUTO 31020G29KT 7SM SCT024 OVC075 M06/M10 A2968 RMK AO2 T10581100
KMCD 120455Z AUTO 32021G34KT 5SM -SN SCT013 BKN025 OVC075 M05/M09 A2968 RMK AO2 T10531095
KMCD 120435Z AUTO 33018G28KT 4SM -SN OVC015 M05/M08 A2967 RMK AO2 T10471078
KMCD 120415Z AUTO 30016G21KT 10SM OVC015 M04/M07 A2967 RMK AO2 T10411071
KMCD 120355Z AUTO 31016G24KT 7SM -SN OVC017 M04/M07 A2966 RMK AO2 T10401068 410351086
KMCD 120335Z AUTO 32010G23KT 280V340 10SM -SN BKN016 OVC060 M04/M06 A2966 RMK AO2 T10401065
KMCD 120315Z AUTO 31013G20KT 7SM -SN SCT006 BKN060 OVC075 M04/M06 A2966 RMK AO2 T10381061
KMCD 120255Z AUTO 30009G15KT 2 1/2SM -SN BKN006 BKN019 OVC027 M04/M06 A2966 RMK AO2 T10401060
KMCD 120235Z AUTO 29010G16KT 1 1/2SM -SN BKN006 BKN011 OVC016 M04/M06 A2966 RMK AO2 T10361056
KMCD 120215Z AUTO 25003KT 10SM SCT009 SCT050 OVC075 M04/M06 A2965 RMK AO2 T10431064
KMCD 120155Z AUTO 23003KT 10SM OVC009 M04/M06 A2965 RMK AO2 T10431065
KMCD 120135Z AUTO 21005KT 5SM -SN OVC009 M04/M07 A2965 RMK AO2 T10451067
KMCD 120115Z AUTO 21006KT 5SM -SN BKN009 OVC014 M04/M07 A2966 RMK AO2 T10431066
KMCD 120055Z AUTO 19003KT 7SM -SN OVC009 M04/M07 A2966 RMK AO2 T10451067
KMCD 120035Z AUTO 18006KT 5SM -SN OVC011 M04/M07 A2967 RMK AO2 T10451070
KMCD 120015Z AUTO 18006KT 5SM -SN BKN011 OVC016 M04/M07 A2968 RMK AO2 T10451070
KMCD 112355Z AUTO 17005KT 5SM -SN BKN009 BKN020 OVC033 M05/M07 A2968 RMK AO2 T10461070 11046 21056
KMCD 112335Z AUTO 17006KT 5SM -SN BKN009 BKN026 OVC044 M05/M07 A2968 RMK AO2 T10471073
KMCD 112315Z AUTO 17011G15KT 10SM SCT009 SCT026 OVC050 M05/M07 A2968 RMK AO2 T10481075
KMCD 112255Z AUTO 17007G15KT 10SM -SN SCT009 OVC050 M05/M07 A2970 RMK AO2 T10501075
KMCD 112235Z AUTO 17007G15KT 150V210 2 1/2SM -SN BKN009 BKN015 OVC024 M05/M07 A2970 RMK AO2 T10511075
KMCD 112215Z AUTO 17009G17KT 2 1/2SM -SN OVC009 M05/M07 A2970 RMK AO2 T10511074
KMCD 112155Z AUTO 16010G16KT 3/4SM -SN OVC010 M05/M07 A2971 RMK AO2 T10521075
KMCD 112135Z AUTO 17011G16KT 3/4SM -SN OVC010 M05/M07 A2972 RMK AO2 T10531075
KMCD 112115Z AUTO 16009G15KT 3/4SM -SN OVC010 M05/M07 A2972 RMK AO2 T10531075
KMCD 112055Z AUTO 16010G17KT 3/4SM -SN OVC008 M05/M07 A2973 RMK AO2 T10521075
KMCD 112035Z AUTO 16008G14KT 3/4SM -SN OVC008 M05/M07 A2973 RMK AO2 T10531075
KMCD 112015Z AUTO 16010G17KT 3/4SM -SN OVC008 M05/M08 A2974 RMK AO2 T10541077
KMCD 111955Z AUTO 16010G17KT 3/4SM -SN OVC010 M05/M08 A2975 RMK AO2 T10541079
KMCD 111935Z AUTO 16008G17KT 1SM -SN OVC010 M05/M08 A2975 RMK AO2 T10551080
KMCD 111855Z AUTO 16011G17KT 110V200 1 3/4SM -SN OVC010 M05/M08 A2977 RMK AO2 T10551082
KMCD 111835Z AUTO 16007G17KT 1 3/4SM -SN OVC010 M05/M08 A2978 RMK AO2 T10551080
KMCD 111815Z AUTO 17008G15KT 1SM -SN OVC010 M05/M08 A2980 RMK AO2 T10551081
KMCD 111755Z AUTO 16009G15KT 120V180 1 1/4SM -SN OVC010 M06/M08 A2982 RMK AO2 T10561084 11056 21075
KMCD 111735Z AUTO 16010G19KT 130V190 1 3/4SM -SN OVC010 M06/M09 A2982 RMK AO2 T10581087
KMCD 111715Z AUTO 15009G16KT 130V200 3SM -SN BKN010 OVC013 M06/M09 A2984 RMK AO2 T10591089
KMCD 111655Z AUTO 16009G16KT 1 1/2SM -SN OVC010 M06/M09 A2985 RMK AO2 T10601088
KMCD 111635Z AUTO 15006G18KT 110V170 1SM -SN OVC012 M06/M09 A2987 RMK AO2 T10611091
KMCD 111615Z AUTO 15010G17KT 2 1/2SM -SN SCT018 BKN026 OVC032 M06/M10 A2988 RMK AO2 T10601101
KMCD 111555Z AUTO 15007G16KT 10SM -SN OVC032 M06/M11 A2989 RMK AO2 T10601107
KMCD 111535Z AUTO 15009G19KT 120V180 7SM -SN SCT019 OVC030 M06/M11 A2990 RMK AO2 T10651111
KMCD 111515Z AUTO 15005G16KT 7SM -SN SCT018 OVC026 M06/M11 A2991 RMK AO2 T10651109
KMCD 111455Z AUTO 15006G17KT 10SM -SN SCT020 OVC026 M06/M11 A2992 RMK AO2 T10651113
KMCD 111435Z AUTO 16009G14KT 100V200 10SM OVC024 M06/M11 A2993 RMK AO2 T10651115
KMCD 111415Z AUTO 16009G14KT 10SM BKN020 OVC025 M07/M12 A2993 RMK AO2 T10661118
KMCD 111355Z AUTO 16007KT 10SM OVC020 M07/M12 A2994 RMK AO2 T10671116
KMCD 111335Z AUTO 14006KT 10SM OVC020 M07/M11 A2994 RMK AO2 T10681114
KMCD 111315Z AUTO 14004KT 10SM SCT010 SCT014 OVC020 M07/M11 A2993 RMK AO2 T10681113
KMCD 111255Z AUTO 13003KT 10SM BKN010 BKN015 OVC021 M07/M10 A2993 RMK AO2 T10661096
KMCD 111235Z AUTO 06003KT 10SM SCT015 BKN021 OVC026 M07/M10 A2994 RMK AO2 T10681105
KMCD 111215Z AUTO 08003KT 10SM OVC026 M07/M11 A2994 RMK AO2 T10721107
KMCD 111155Z AUTO 08003KT 10SM OVC026 M07/M11 A2995 RMK AO2 T10751110 11075 21086
KMCD 111135Z AUTO 07003KT 10SM OVC026 M08/M11 A2995 RMK AO2 T10761110
KMCD 111115Z AUTO 09003KT 10SM -SN OVC026 M08/M11 A2995 RMK AO2 T10771113
KMCD 111055Z AUTO 07003KT 10SM OVC026 M08/M11 A2995 RMK AO2 T10781115
KMCD 111035Z AUTO 00000KT 10SM OVC026 M08/M12 A2995 RMK AO2 T10801124
KMCD 111015Z AUTO 04003KT 10SM OVC026 M08/M13 A2995 RMK AO2 T10821126
KMCD 110955Z AUTO 00000KT 10SM OVC028 M08/M13 A2995 RMK AO2 T10811130
KMCD 110935Z AUTO 01003KT 10SM OVC028 M08/M13 A2996 RMK AO2 T10821127
KMCD 110915Z AUTO 01004KT 10SM OVC030 M08/M12 A2997 RMK AO2 T10821125
KMCD 110855Z AUTO 36005KT 10SM OVC030 M08/M13 A2998 RMK AO2 T10801128
KMCD 110835Z AUTO 34007KT 10SM OVC032 M08/M13 A2999 RMK AO2 T10811133
KMCD 110815Z AUTO 33008KT 10SM SCT019 OVC032 M09/M12 A2999 RMK AO2 T10861125
KMCD 110755Z AUTO 00000KT 10SM OVC034 M08/M12 A3000 RMK AO2 T10851125
KMCD 110735Z AUTO 33003KT 10SM SCT021 OVC032 M08/M13 A3000 RMK AO2 T10821129
KMCD 110715Z AUTO 35005KT 10SM OVC034 M08/M13 A3000 RMK AO2 T10831135
KMCD 110655Z AUTO 33007KT 10SM OVC032 M08/M14 A2999 RMK AO2 T10821140
KMCD 110635Z AUTO 33004KT 10SM OVC032 M08/M14 A3000 RMK AO2 T10811138
KMCD 110615Z AUTO 33009KT 10SM SCT023 OVC032 M08/M14 A2999 RMK AO2 T10821141
KMCD 110555Z AUTO 31009KT 10SM SCT026 OVC034 M08/M14 A2999 RMK AO2 T10821141 11080 21089
KMCD 110535Z AUTO 31007KT 10SM SCT026 OVC032 M08/M14 A2998 RMK AO2 T10811140
KMCD 110515Z AUTO 30008KT 10SM OVC032 M08/M14 A2998 RMK AO2 T10821145
KMCD 110455Z AUTO 29009KT 10SM OVC032 M08/M14 A2999 RMK AO2 T10821142
KMCD 110435Z AUTO 29009KT 10SM OVC032 M08/M14 A2999 RMK AO2 T10831142
KMCD 110415Z AUTO 30007G14KT 270V330 10SM OVC032 M08/M14 A2999 RMK AO2 T10851144
KMCD 110355Z AUTO 32008G14KT 10SM OVC032 M08/M14 A2998 RMK AO2 T10851145 410281090
KMCD 110335Z AUTO 30009G18KT 10SM OVC034 M08/M14 A2999 RMK AO2 T10851145
KMCD 110315Z AUTO 30012G19KT 10SM OVC034 M08/M14 A2999 RMK AO2 T10851137
KMCD 110255Z AUTO 30010G16KT 10SM OVC034 M08/M14 A2998 RMK AO2 T10851142
KMCD 110235Z AUTO 29010G14KT 10SM OVC034 M08/M14 A2997 RMK AO2 T10851140
KMCD 110215Z AUTO 30007G18KT 10SM OVC034 M09/M14 A2997 RMK AO2 T10861140